Lander, WY

9:13 PM MST on November 25, 2014 (GMT -0700)
Riverton Regional | Change Station
CLOSE
Current Station
Airport
Location: Riverton,
Elevation: 5525 ft
Nearby Weather Stations
Active Advisory: Special Statement Active Notice: Public Information Statement

Elev 5525 ft 43.06 °N, 108.46 °W | Updated 13 minutes ago

Snow
Snow
30 °F
Feels Like 24 °F
N
6
Wind Variable Wind from NE

Today
High -- | Low -- °F
--% Chance of Precip.
Yesterday
High -- | Low -- °F
Precip. -- in
7:18 AM 4:44 PM
Waxing Crescent, 16% visible
Pressure 30.10 in
Visibility 1.8 miles
Clouds Overcast 1600 ft
Windchill 24 °F
Dew Point 28 °F
Humidity 92%
Rainfall 0.03 in
Snow Depth Not available.
UV 0 out of 12
Pollen .10 out of 12
Air Quality Not available.
Flu Activity Not available.
SPECI KRIW 260400Z AUTO 04005KT 1 3/4SM -SN BR OVC016 M01/M02 A3010 RMK AO2 P0000 T10111022

More Conditions Fewer Conditions

Pressure 30.10 in
Visibility 1.8 miles
Clouds Overcast 1600 ft
Windchill 24 °F
Dew Point 28 °F
Humidity 92%
Rainfall 0.03 in
Snow Depth Not available.
UV 0 out of 12
Pollen .10 out of 12
Air Quality Not available.
Flu Activity Not available.
SPECI KRIW 260400Z AUTO 04005KT 1 3/4SM -SN BR OVC016 M01/M02 A3010 RMK AO2 P0000 T10111022

More Conditions Fewer Conditions

10-Day Weather Forecast

Almanac

Astronomy

Nov. 25, 2014 Rise Set
Actual Time
Civil Twilight
Nautical Twilight
Astronomical Twilight
Moon
Length of Visible Light
Length of Day
Tomorrow will be .
, % of the Moon is Illuminated

Today's Extremes

State Highs State Lows

Community

WunderPhotos

Upload Photos

1,773,679 photos uploaded!

WunderBlogs® & News

Nearby

Air Quality

  Air Quality AQ Index Pollutant
Not available.

Snow Depth

Station Depth Elevation

Earthquake Activity

City Distance Mag. Time & Date
Minimum magnitude displayed is 2.5.

Coastal Water Temperatures

Place Temperature

Nearby Weather Stations